Time;durP1;ratioP1;P1;durP2;ratioP2;P2;SDS_P1;SDS_P2;PMS_P1;PMS_P2;Temp;Humidity;BMP_temperature;BMP_pressure;BME280_temperature;BME280_humidity;BME280_pressure;Samples;Min_cycle;Max_cycle;Signal;HPM_P1;HPM_P2
2022/05/26 00:01:37;;;;;;;2.92;1.30;;;15.00;99.90;;;;;;5115179;28;20216;-58
2022/05/26 00:04:03;;;;;;;1.38;1.08;;;14.90;99.90;;;;;;5114023;28;20173;-58
2022/05/26 00:06:30;;;;;;;1.88;1.40;;;15.00;99.90;;;;;;5114916;28;20189;-58
2022/05/26 00:08:56;;;;;;;2.17;1.20;;;15.00;99.90;;;;;;5114943;28;20205;-59
2022/05/26 00:11:31;;;;;;;1.00;0.88;;;15.00;99.90;;;;;;5115176;27;20192;-58
2022/05/26 00:13:58;;;;;;;1.35;1.10;;;15.10;99.90;;;;;;5115299;28;20164;-58
2022/05/26 00:16:24;;;;;;;2.58;1.35;;;15.00;99.90;;;;;;5114918;28;20173;-58
2022/05/26 00:18:50;;;;;;;2.30;1.10;;;15.10;99.90;;;;;;5114836;28;20538;-59
2022/05/26 00:21:17;;;;;;;2.00;1.13;;;15.00;99.90;;;;;;5114592;28;20177;-58
2022/05/26 00:23:43;;;;;;;2.63;1.30;;;15.00;99.90;;;;;;5114975;28;20175;-59
2022/05/26 00:26:09;;;;;;;3.05;1.27;;;14.90;99.90;;;;;;5113572;28;20177;-58
2022/05/26 00:28:35;;;;;;;3.22;1.30;;;14.90;99.90;;;;;;5114649;28;20201;-58
2022/05/26 00:31:01;;;;;;;1.90;1.30;;;14.90;99.90;;;;;;5114727;28;20599;-58
2022/05/26 00:33:27;;;;;;;2.30;1.20;;;14.70;99.90;;;;;;5114558;28;20204;-58
2022/05/26 00:35:53;;;;;;;1.70;1.05;;;14.80;99.90;;;;;;5113153;28;20184;-58
2022/05/26 00:38:19;;;;;;;1.27;1.17;;;14.70;99.90;;;;;;5114700;28;20185;-58
2022/05/26 00:40:46;;;;;;;0.95;0.93;;;14.80;99.90;;;;;;5114539;28;20173;-58
2022/05/26 00:43:12;;;;;;;1.58;1.20;;;14.80;99.90;;;;;;5114338;28;20181;-58
2022/05/26 00:45:56;;;;;;;3.05;1.60;;;14.80;99.90;;;;;;5114397;28;20203;-58
2022/05/26 00:48:26;;;;;;;2.65;1.10;;;14.90;99.90;;;;;;5114164;28;20666;-58
2022/05/26 00:51:01;;;;;;;2.00;1.25;;;14.90;99.90;;;;;;5114415;28;20260;-58
2022/05/26 00:53:43;;;;;;;1.85;1.10;;;14.90;99.90;;;;;;5114218;28;20648;-58
2022/05/26 00:56:19;;;;;;;2.67;1.20;;;14.90;99.90;;;;;;5114239;28;20195;-58
2022/05/26 00:58:49;;;;;;;1.50;1.25;;;14.80;99.90;;;;;;5114107;28;20183;-58
2022/05/26 01:01:16;;;;;;;2.03;1.25;;;14.80;99.90;;;;;;5114262;28;20173;-58
2022/05/26 01:04:01;;;;;;;2.30;1.20;;;14.90;99.90;;;;;;5114017;28;20661;-58
2022/05/26 01:06:31;;;;;;;2.42;1.52;;;14.80;99.90;;;;;;5114209;28;20184;-58
2022/05/26 01:09:01;;;;;;;3.15;1.30;;;14.90;99.90;;;;;;5113801;28;20208;-58
2022/05/26 01:11:34;;;;;;;2.70;1.30;;;14.90;99.90;;;;;;5114196;28;20162;-58
2022/05/26 01:14:30;;;;;;;3.35;1.83;;;14.90;99.90;;;;;;5114051;28;20179;-58
2022/05/26 01:17:03;;;;;;;3.95;1.85;;;14.80;99.90;;;;;;5112775;28;20225;-58
2022/05/26 01:20:10;;;;;;;2.25;1.48;;;14.70;99.90;;;;;;5114089;28;20190;-58
2022/05/26 01:23:24;;;;;;;3.83;1.63;;;14.80;99.90;;;;;;5113910;28;20173;-58
2022/05/26 01:26:04;;;;;;;4.43;1.70;;;14.70;99.90;;;;;;5113681;28;20195;-58
2022/05/26 01:28:56;;;;;;;2.92;1.42;;;14.80;99.90;;;;;;5113870;28;20212;-58
2022/05/26 01:31:43;;;;;;;1.73;1.00;;;14.80;99.90;;;;;;5107385;28;20182;-58
2022/05/26 01:34:30;;;;;;;3.42;1.33;;;14.80;99.90;;;;;;5113566;28;20693;-58
2022/05/26 01:37:29;;;;;;;3.95;1.38;;;14.70;99.90;;;;;;5114296;28;20173;-58
2022/05/26 01:40:04;;;;;;;1.98;1.27;;;14.80;99.90;;;;;;5113721;28;20176;-58
2022/05/26 01:42:47;;;;;;;2.63;1.38;;;14.80;99.90;;;;;;5113640;28;20169;-58
2022/05/26 01:45:31;;;;;;;2.58;1.60;;;14.70;99.90;;;;;;5113767;28;20201;-58
2022/05/26 01:48:07;;;;;;;3.67;1.65;;;14.80;99.90;;;;;;5113563;28;20176;-58
2022/05/26 01:50:57;;;;;;;3.15;1.25;;;14.70;99.90;;;;;;5113704;28;20165;-58
2022/05/26 01:53:36;;;;;;;1.83;1.40;;;14.70;99.90;;;;;;5113804;28;20222;-57
2022/05/26 01:56:14;;;;;;;2.33;1.35;;;14.60;99.90;;;;;;5113660;28;20230;-57
2022/05/26 01:58:49;;;;;;;2.80;1.23;;;14.60;99.90;;;;;;5113577;28;20190;-57
2022/05/26 02:01:21;;;;;;;1.65;1.45;;;14.50;99.90;;;;;;5113502;28;20260;-57
2022/05/26 02:03:49;;;;;;;1.52;1.40;;;14.50;99.90;;;;;;5113839;28;20526;-58
2022/05/26 02:06:30;;;;;;;3.65;2.00;;;14.50;99.90;;;;;;5112227;28;20197;-58
2022/05/26 02:09:20;;;;;;;4.20;2.28;;;14.50;99.90;;;;;;5113468;28;20304;-58
2022/05/26 02:11:54;;;;;;;2.15;1.48;;;14.60;99.90;;;;;;5113610;28;20166;-58
2022/05/26 02:14:43;;;;;;;4.10;1.50;;;14.50;99.90;;;;;;5113381;28;20208;-58
2022/05/26 02:17:18;;;;;;;3.35;1.55;;;14.60;99.90;;;;;;5113379;28;20200;-57
2022/05/26 02:19:50;;;;;;;2.03;1.27;;;14.60;99.90;;;;;;5113309;28;20173;-58
2022/05/26 02:22:42;;;;;;;2.90;1.58;;;14.60;99.90;;;;;;5113497;28;20166;-58
2022/05/26 02:25:17;;;;;;;3.88;1.38;;;14.60;99.90;;;;;;5113370;28;20192;-58
2022/05/26 02:27:44;;;;;;;2.78;1.25;;;14.60;99.90;;;;;;5113294;28;20169;-58
2022/05/26 02:30:12;;;;;;;3.75;1.50;;;14.60;99.90;;;;;;5111840;28;20272;-58
2022/05/26 02:32:45;;;;;;;4.13;1.55;;;14.50;99.90;;;;;;5113027;28;20653;-58
2022/05/26 02:35:18;;;;;;;2.92;1.52;;;14.60;99.90;;;;;;5113249;28;20170;-58
2022/05/26 02:37:47;;;;;;;3.40;1.35;;;14.50;99.90;;;;;;5113376;28;20157;-58
2022/05/26 02:40:14;;;;;;;3.30;1.10;;;14.50;99.90;;;;;;5113086;28;20202;-58
2022/05/26 02:42:54;;;;;;;1.63;1.13;;;14.50;99.90;;;;;;5113043;28;20165;-57
2022/05/26 02:45:39;;;;;;;2.92;1.70;;;14.50;99.90;;;;;;5116586;28;20527;-58
2022/05/26 02:48:25;;;;;;;1.90;1.20;;;14.50;99.90;;;;;;5116678;28;20212;-57
2022/05/26 02:50:59;;;;;;;2.80;1.30;;;14.40;99.90;;;;;;5116665;28;20176;-58
2022/05/26 02:53:38;;;;;;;4.05;1.75;;;14.40;99.90;;;;;;5116517;28;20177;-58
2022/05/26 02:56:14;;;;;;;2.33;1.60;;;14.30;99.90;;;;;;5116746;27;20545;-58
2022/05/26 02:59:11;;;;;;;2.65;1.88;;;14.30;99.90;;;;;;5116515;28;20529;-57
2022/05/26 03:01:51;;;;;;;3.50;1.60;;;14.20;99.90;;;;;;5116338;28;20638;-57
2022/05/26 03:04:30;;;;;;;1.50;1.05;;;14.20;99.90;;;;;;5116575;28;20165;-57
2022/05/26 03:07:04;;;;;;;3.60;1.95;;;14.20;99.90;;;;;;5116377;28;20192;-58
2022/05/26 03:09:35;;;;;;;2.88;1.60;;;14.30;99.90;;;;;;5116307;28;20253;-59
2022/05/26 03:12:00;;;;;;;3.88;1.70;;;14.20;99.90;;;;;;5116229;28;20166;-57
2022/05/26 03:14:26;;;;;;;2.85;1.70;;;14.10;99.90;;;;;;5115095;28;20169;-58
2022/05/26 03:16:53;;;;;;;2.97;1.48;;;14.10;99.90;;;;;;5116290;28;20673;-58
2022/05/26 03:19:19;;;;;;;2.30;1.45;;;14.10;99.90;;;;;;5116078;28;20165;-58
2022/05/26 03:21:45;;;;;;;1.95;1.10;;;14.00;99.90;;;;;;5116129;28;20185;-58
2022/05/26 03:24:11;;;;;;;3.40;2.13;;;14.00;99.90;;;;;;5116000;28;20246;-58
2022/05/26 03:26:37;;;;;;;2.55;1.40;;;13.90;99.90;;;;;;5115847;28;20177;-58
2022/05/26 03:29:04;;;;;;;3.33;1.67;;;13.90;99.90;;;;;;5115986;28;20204;-58
2022/05/26 03:31:31;;;;;;;3.47;1.80;;;13.80;99.90;;;;;;5115730;27;20630;-58
2022/05/26 03:42:11;;;;;;;5.05;1.70;;;13.90;99.90;;;;;;5115960;28;20669;-58
2022/05/26 03:44:37;;;;;;;2.13;1.40;;;13.80;99.90;;;;;;5115645;28;20200;-57
2022/05/26 03:47:04;;;;;;;2.55;1.48;;;13.90;99.90;;;;;;5115550;28;20165;-58
2022/05/26 03:49:30;;;;;;;2.58;1.30;;;13.90;99.90;;;;;;5115267;28;20197;-58
2022/05/26 03:51:57;;;;;;;2.83;1.80;;;13.90;99.90;;;;;;5115394;28;20511;-58
2022/05/26 03:54:23;;;;;;;4.22;1.67;;;14.00;99.90;;;;;;5115003;28;20260;-58
2022/05/26 03:56:49;;;;;;;2.40;1.60;;;14.00;99.90;;;;;;5115451;28;20169;-58
2022/05/26 03:59:15;;;;;;;3.25;1.55;;;14.00;99.90;;;;;;5115354;28;20184;-58
2022/05/26 04:01:40;;;;;;;3.75;2.10;;;14.00;99.90;;;;;;5115163;28;20290;-58
2022/05/26 04:04:07;;;;;;;2.28;1.50;;;14.10;99.90;;;;;;5115098;27;20238;-58
2022/05/26 04:06:33;;;;;;;2.53;1.67;;;14.10;99.90;;;;;;5113847;28;20266;-58
2022/05/26 04:08:59;;;;;;;2.97;1.60;;;14.10;99.90;;;;;;5115325;28;20734;-58
2022/05/26 04:11:25;;;;;;;3.47;2.00;;;14.10;99.90;;;;;;5114989;28;20173;-58
2022/05/26 04:13:52;;;;;;;2.70;1.67;;;14.10;99.90;;;;;;5115051;28;20173;-58
2022/05/26 04:16:18;;;;;;;3.45;1.92;;;14.10;99.90;;;;;;5114947;28;20181;-57
2022/05/26 04:18:44;;;;;;;2.67;1.42;;;14.00;99.90;;;;;;5114852;28;20169;-57
2022/05/26 04:21:11;;;;;;;2.72;1.80;;;14.00;99.90;;;;;;5115024;28;20173;-58
2022/05/26 04:23:38;;;;;;;3.67;1.33;;;14.00;99.90;;;;;;5113555;28;20625;-58
2022/05/26 04:26:04;;;;;;;4.70;1.58;;;14.00;99.90;;;;;;5113699;28;20173;-58
2022/05/26 04:28:30;;;;;;;2.47;1.90;;;13.90;99.90;;;;;;5114591;28;20205;-58
2022/05/26 04:30:56;;;;;;;2.95;2.20;;;14.00;99.90;;;;;;5096577;28;20192;-58
2022/05/26 04:33:22;;;;;;;3.97;1.85;;;14.00;99.90;;;;;;5114473;28;20646;-58
2022/05/26 04:35:47;;;;;;;4.10;1.88;;;14.00;99.90;;;;;;5114420;28;20184;-58
2022/05/26 04:38:13;;;;;;;3.33;1.63;;;14.00;99.90;;;;;;5114673;28;20212;-58
2022/05/26 04:40:39;;;;;;;4.60;2.28;;;14.00;99.90;;;;;;5114572;28;20233;-58
2022/05/26 04:43:06;;;;;;;3.47;1.98;;;14.00;99.90;;;;;;5114420;28;20216;-58
2022/05/26 04:45:32;;;;;;;3.03;1.90;;;14.00;99.90;;;;;;5114386;28;20178;-58
2022/05/26 04:47:58;;;;;;;4.93;2.58;;;14.10;99.90;;;;;;5112891;28;20184;-58
2022/05/26 04:50:24;;;;;;;6.50;2.10;;;14.20;99.90;;;;;;5114473;28;20177;-58
2022/05/26 04:52:50;;;;;;;4.20;1.85;;;14.30;99.90;;;;;;5114461;27;20174;-58
2022/05/26 04:55:16;;;;;;;4.63;2.20;;;14.40;99.90;;;;;;5114290;28;20174;-57
2022/05/26 04:57:42;;;;;;;4.85;1.98;;;14.40;99.90;;;;;;5114174;28;20180;-57
2022/05/26 05:00:12;;;;;;;3.55;2.20;;;14.50;99.90;;;;;;5114063;28;20231;-58
2022/05/26 05:02:38;;;;;;;5.38;2.60;;;14.50;99.90;;;;;;5114000;28;20169;-58
2022/05/26 05:05:05;;;;;;;3.92;2.58;;;14.50;99.90;;;;;;5095913;28;20298;-57
2022/05/26 05:07:31;;;;;;;7.95;3.08;;;14.50;99.90;;;;;;5113293;28;20242;-58
2022/05/26 05:09:56;;;;;;;5.80;3.05;;;14.50;99.90;;;;;;5114013;28;20669;-58
2022/05/26 05:12:23;;;;;;;5.38;2.60;;;14.50;99.90;;;;;;5113932;28;20173;-58
2022/05/26 05:14:51;;;;;;;4.57;2.63;;;14.50;99.90;;;;;;5113847;28;20169;-58
2022/05/26 05:17:19;;;;;;;4.75;3.13;;;14.60;99.90;;;;;;5114025;28;20166;-58
2022/05/26 05:19:46;;;;;;;3.47;2.80;;;14.60;99.90;;;;;;5114021;28;20268;-58
2022/05/26 05:22:24;;;;;;;5.78;3.33;;;14.70;99.90;;;;;;5113944;28;20169;-58
2022/05/26 05:24:56;;;;;;;7.57;3.17;;;14.80;99.90;;;;;;5113901;28;20169;-58
2022/05/26 05:27:28;;;;;;;5.82;4.05;;;14.80;99.90;;;;;;5113694;28;20222;-58
2022/05/26 05:29:58;;;;;;;5.00;3.33;;;14.80;99.90;;;;;;5113876;28;20229;-58
2022/05/26 05:32:56;;;;;;;4.43;3.30;;;14.90;99.90;;;;;;5114085;28;20193;-58
2022/05/26 05:35:28;;;;;;;3.88;2.75;;;14.90;99.90;;;;;;5113662;28;20262;-58
2022/05/26 05:37:55;;;;;;;2.90;2.40;;;14.80;99.90;;;;;;5113636;28;20169;-58
2022/05/26 05:40:21;;;;;;;4.63;2.65;;;14.80;99.90;;;;;;5113788;28;20174;-58
2022/05/26 05:42:47;;;;;;;3.20;2.88;;;14.90;99.90;;;;;;5112505;28;20177;-58
2022/05/26 05:45:13;;;;;;;4.25;2.65;;;15.10;99.90;;;;;;5113703;28;20173;-58
2022/05/26 05:47:38;;;;;;;5.57;3.00;;;15.20;99.90;;;;;;5112371;28;20181;-58
2022/05/26 05:50:04;;;;;;;6.80;3.83;;;15.30;99.90;;;;;;5113396;28;20216;-57
2022/05/26 05:52:30;;;;;;;5.82;3.63;;;15.30;99.90;;;;;;5095126;28;20526;-58
2022/05/26 05:54:56;;;;;;;4.00;3.28;;;15.20;99.90;;;;;;5113450;28;20169;-58
2022/05/26 05:57:22;;;;;;;6.40;3.75;;;15.10;99.90;;;;;;5113852;28;20253;-58
2022/05/26 05:59:48;;;;;;;5.68;3.45;;;15.20;99.90;;;;;;5113493;28;20212;-58
2022/05/26 06:02:14;;;;;;;7.07;3.53;;;15.40;99.90;;;;;;5113520;28;20213;-58
2022/05/26 06:04:43;;;;;;;4.50;3.30;;;15.50;99.90;;;;;;5113398;28;20653;-58
2022/05/26 06:07:18;;;;;;;7.00;4.03;;;15.70;99.90;;;;;;5113009;28;20238;-58
2022/05/26 06:09:44;;;;;;;4.50;3.42;;;15.80;99.90;;;;;;5113276;28;20669;-58
2022/05/26 06:12:10;;;;;;;5.35;2.83;;;15.80;99.90;;;;;;5113459;28;20269;-58
2022/05/26 06:14:37;;;;;;;9.88;4.95;;;15.90;99.90;;;;;;5113363;28;20648;-58
2022/05/26 06:17:03;;;;;;;9.35;3.75;;;15.90;99.90;;;;;;5113258;28;20173;-57
2022/05/26 06:19:29;;;;;;;4.72;2.90;;;16.00;99.90;;;;;;5117027;28;20707;-57
2022/05/26 06:21:54;;;;;;;5.22;3.05;;;16.00;99.90;;;;;;5115935;28;20174;-58
2022/05/26 06:24:23;;;;;;;5.03;3.10;;;16.10;99.90;;;;;;5117260;28;20173;-58
2022/05/26 06:26:49;;;;;;;4.45;2.92;;;16.10;99.90;;;;;;5117202;28;20170;-57
2022/05/26 06:37:28;;;;;;;3.10;2.15;;;16.60;99.90;;;;;;5117047;28;20222;-57
2022/05/26 06:39:55;;;;;;;3.10;2.08;;;16.70;99.90;;;;;;5116814;28;20182;-57
2022/05/26 06:42:24;;;;;;;3.45;2.25;;;16.70;99.90;;;;;;5116718;28;20587;-58
2022/05/26 06:44:51;;;;;;;4.50;2.65;;;16.90;99.90;;;;;;5115552;28;20599;-57
2022/05/26 06:47:19;;;;;;;3.72;2.17;;;17.00;99.90;;;;;;5116883;28;20260;-58
2022/05/26 06:49:45;;;;;;;3.85;2.00;;;17.10;99.90;;;;;;5116654;28;20204;-58
2022/05/26 06:52:12;;;;;;;2.00;1.50;;;17.40;99.90;;;;;;5116512;28;20196;-58
2022/05/26 06:54:41;;;;;;;2.53;1.60;;;17.40;99.90;;;;;;5116475;28;20252;-58
2022/05/26 06:57:09;;;;;;;3.58;1.92;;;17.30;99.90;;;;;;5116481;28;20176;-58
2022/05/26 06:59:36;;;;;;;3.70;1.92;;;17.20;99.90;;;;;;5116635;28;20634;-58
2022/05/26 07:02:03;;;;;;;2.75;2.35;;;17.10;99.90;;;;;;5116486;27;20209;-57
2022/05/26 07:04:29;;;;;;;3.30;2.50;;;17.20;99.90;;;;;;5116402;27;20219;-58
2022/05/26 07:06:55;;;;;;;3.95;2.50;;;17.60;99.90;;;;;;5114844;28;20189;-60
2022/05/26 07:09:22;;;;;;;2.90;2.60;;;17.80;99.90;;;;;;5116128;28;20197;-58
2022/05/26 07:11:48;;;;;;;4.13;2.58;;;18.00;99.90;;;;;;5116655;28;20225;-58
2022/05/26 07:14:14;;;;;;;2.53;2.33;;;18.10;99.90;;;;;;5116376;28;20173;-58
2022/05/26 07:16:41;;;;;;;2.78;2.20;;;17.90;99.90;;;;;;5116262;28;20217;-57
2022/05/26 07:19:07;;;;;;;4.70;2.88;;;17.60;99.90;;;;;;5115976;28;20169;-58
2022/05/26 07:21:33;;;;;;;4.25;3.03;;;17.30;99.90;;;;;;5115996;28;20295;-58
2022/05/26 07:23:59;;;;;;;5.28;3.42;;;17.50;99.90;;;;;;5115877;28;20181;-58
2022/05/26 07:26:25;;;;;;;4.40;3.25;;;17.90;99.90;;;;;;5115785;28;20188;-57
2022/05/26 07:28:52;;;;;;;5.28;4.05;;;18.20;99.90;;;;;;5115449;28;20205;-58
2022/05/26 07:31:18;;;;;;;6.43;3.65;;;18.60;99.90;;;;;;5115579;28;20173;-58
2022/05/26 07:33:44;;;;;;;5.53;4.05;;;19.00;99.90;;;;;;5115693;28;20170;-59
2022/05/26 07:41:16;;;;;;;6.35;3.67;;;19.20;99.90;;;;;;5115898;28;20260;-58
2022/05/26 07:41:42;;;;;;;4.10;3.70;;;18.50;99.90;;;;;;5115652;28;20172;-58
2022/05/26 07:44:07;;;;;;;4.07;3.67;;;18.20;99.90;;;;;;5115625;28;20193;-59
2022/05/26 07:46:33;;;;;;;3.83;3.47;;;18.20;99.90;;;;;;5115510;28;20538;-58
2022/05/26 07:48:59;;;;;;;5.90;4.30;;;18.40;99.90;;;;;;5115361;28;20254;-58
2022/05/26 07:51:24;;;;;;;4.53;3.70;;;18.70;99.90;;;;;;5115328;28;20200;-58
2022/05/26 07:53:50;;;;;;;4.78;4.22;;;18.90;99.90;;;;;;5115776;28;20177;-57
2022/05/26 07:56:17;;;;;;;5.80;4.40;;;19.10;99.90;;;;;;5115511;28;20656;-58
2022/05/26 07:58:43;;;;;;;4.15;3.72;;;19.40;99.90;;;;;;5115289;28;20598;-59
2022/05/26 08:01:10;;;;;;;6.18;4.50;;;19.40;99.90;;;;;;5115198;28;20176;-58
2022/05/26 08:03:37;;;;;;;5.82;3.95;;;19.50;99.90;;;;;;5115103;28;20177;-58
2022/05/26 08:06:03;;;;;;;5.68;4.32;;;19.30;99.90;;;;;;5115069;28;20193;-58
2022/05/26 08:08:32;;;;;;;4.43;3.80;;;18.80;99.90;;;;;;5115297;28;20208;-58
2022/05/26 08:10:57;;;;;;;5.25;4.05;;;18.60;99.90;;;;;;5115127;28;20165;-58
2022/05/26 08:13:23;;;;;;;3.88;3.30;;;18.80;99.90;;;;;;5115024;28;20188;-60
2022/05/26 08:15:49;;;;;;;5.97;4.28;;;18.60;99.90;;;;;;5114901;28;20630;-58
2022/05/26 08:18:15;;;;;;;5.30;3.58;;;18.70;99.90;;;;;;5114721;28;20177;-58
2022/05/26 08:20:41;;;;;;;4.20;3.58;;;19.00;99.90;;;;;;5115029;28;20196;-58
2022/05/26 08:23:07;;;;;;;5.43;3.83;;;19.10;99.90;;;;;;5115099;28;20230;-59
2022/05/26 08:25:34;;;;;;;5.25;3.83;;;18.90;99.90;;;;;;5114914;28;20173;-59
2022/05/26 08:28:00;;;;;;;4.63;3.20;;;18.80;99.90;;;;;;5113166;28;20234;-58
2022/05/26 08:30:27;;;;;;;4.40;3.17;;;18.40;99.90;;;;;;5114105;28;20546;-58
2022/05/26 08:32:55;;;;;;;5.30;3.95;;;18.30;99.90;;;;;;5114202;28;20181;-58
2022/05/26 08:35:21;;;;;;;4.10;3.70;;;18.30;99.90;;;;;;5114528;28;20173;-59
2022/05/26 08:37:47;;;;;;;3.97;3.55;;;18.20;99.90;;;;;;5114576;28;20183;-58
2022/05/26 08:40:36;;;;;;;5.03;3.13;;;18.40;99.90;;;;;;5114251;28;20178;-58
2022/05/26 08:43:04;;;;;;;4.63;3.10;;;18.60;99.90;;;;;;5113611;28;20177;-58
2022/05/26 08:45:35;;;;;;;3.60;3.00;;;18.40;99.90;;;;;;5114181;28;20274;-58
2022/05/26 08:48:01;;;;;;;4.13;3.40;;;18.30;99.90;;;;;;5114649;28;20169;-58
2022/05/26 08:50:32;;;;;;;5.18;2.92;;;18.30;99.90;;;;;;5114332;28;20188;-58
2022/05/26 08:53:24;;;;;;;4.32;2.67;;;18.30;99.90;;;;;;5114284;28;20548;-58
2022/05/26 08:55:51;;;;;;;4.30;2.22;;;18.50;99.90;;;;;;5114078;28;20214;-58
2022/05/26 08:58:19;;;;;;;2.40;2.20;;;18.80;99.90;;;;;;5114055;28;20181;-58
2022/05/26 09:00:51;;;;;;;3.25;2.35;;;18.90;99.90;;;;;;5114207;28;20204;-59
2022/05/26 09:03:16;;;;;;;3.40;2.17;;;18.80;99.90;;;;;;5114144;28;20634;-58
2022/05/26 09:05:44;;;;;;;2.47;1.58;;;18.70;99.90;;;;;;5112964;28;20201;-58
2022/05/26 09:13:54;;;;;;;2.40;1.63;;;18.90;99.90;;;;;;5114191;28;20250;-58
2022/05/26 09:16:21;;;;;;;1.63;1.10;;;18.70;99.90;;;;;;5114245;28;20260;-59
2022/05/26 09:19:15;;;;;;;1.77;1.40;;;19.20;99.90;;;;;;5113714;28;20534;-58
2022/05/26 09:21:42;;;;;;;2.00;1.45;;;19.70;99.90;;;;;;5114054;28;20169;-58
2022/05/26 09:24:42;;;;;;;2.53;1.23;;;19.80;99.90;;;;;;5113736;28;20178;-59
2022/05/26 09:27:26;;;;;;;1.92;1.42;;;19.60;99.90;;;;;;5110341;28;20214;-58
2022/05/26 09:29:52;;;;;;;1.58;0.95;;;19.30;99.90;;;;;;5113870;28;20646;-58
2022/05/26 09:32:18;;;;;;;1.17;1.00;;;19.20;99.90;;;;;;5112792;28;20260;-58
2022/05/26 09:35:11;;;;;;;2.17;1.15;;;19.20;99.90;;;;;;5113666;28;20201;-58
2022/05/26 09:37:46;;;;;;;2.75;1.20;;;19.70;99.90;;;;;;5113665;28;20173;-58
2022/05/26 09:40:18;;;;;;;1.67;1.13;;;19.70;99.90;;;;;;5113599;28;20199;-58
2022/05/26 09:42:46;;;;;;;1.85;1.40;;;19.40;99.90;;;;;;5112795;28;20614;-57
2022/05/26 09:45:16;;;;;;;3.15;1.40;;;19.70;99.90;;;;;;5112254;28;20169;-58
2022/05/26 09:47:58;;;;;;;1.77;1.30;;;20.00;99.90;;;;;;5113790;28;20627;-58
2022/05/26 09:50:33;;;;;;;1.52;1.27;;;20.10;99.90;;;;;;5112413;28;20303;-58
2022/05/26 09:53:00;;;;;;;3.60;1.75;;;20.10;99.90;;;;;;5114888;28;20173;-58
2022/05/26 09:55:29;;;;;;;1.88;1.60;;;20.30;99.90;;;;;;5117882;28;20196;-58
2022/05/26 09:58:07;;;;;;;2.90;1.52;;;20.10;99.90;;;;;;5117890;28;20169;-58
2022/05/26 10:00:42;;;;;;;1.80;1.20;;;19.90;99.90;;;;;;5117715;28;20264;-58
2022/05/26 10:03:31;;;;;;;2.53;1.60;;;20.40;99.90;;;;;;5117953;28;20188;-59
2022/05/26 10:06:00;;;;;;;1.30;1.20;;;20.80;99.90;;;;;;5117593;28;20210;-58
2022/05/26 10:08:33;;;;;;;2.13;1.25;;;20.80;99.90;;;;;;5117271;28;20207;-58
2022/05/26 10:11:25;;;;;;;1.85;1.10;;;21.20;99.90;;;;;;5117358;28;20170;-58
2022/05/26 10:14:03;;;;;;;2.05;1.30;;;21.30;99.90;;;;;;5117561;28;20178;-59
2022/05/26 10:16:43;;;;;;;2.05;1.50;;;21.10;99.90;;;;;;5117389;28;20191;-58
2022/05/26 10:19:08;;;;;;;1.40;1.17;;;20.50;99.90;;;;;;5117150;28;20181;-59
2022/05/26 10:22:08;;;;;;;1.65;1.20;;;20.20;99.90;;;;;;5117373;28;20572;-59
2022/05/26 10:24:33;;;;;;;2.40;1.05;;;20.20;99.90;;;;;;5114858;28;20581;-59
2022/05/26 10:27:30;;;;;;;1.65;1.13;;;20.10;99.90;;;;;;5117258;28;20169;-58
2022/05/26 10:30:01;;;;;;;2.85;1.20;;;20.40;99.90;;;;;;5117077;28;20312;-58
2022/05/26 10:32:46;;;;;;;0.88;0.85;;;20.80;99.90;;;;;;5117190;28;20196;-57
2022/05/26 10:35:47;;;;;;;1.70;1.60;;;20.90;99.90;;;;;;5117489;28;20169;-57
2022/05/26 10:38:28;;;;;;;2.08;1.38;;;21.10;99.90;;;;;;5117544;28;20184;-57
2022/05/26 10:41:31;;;;;;;2.00;1.10;;;21.30;99.90;;;;;;5115956;28;20180;-59
2022/05/26 10:44:03;;;;;;;2.63;1.33;;;21.30;99.90;;;;;;5115682;28;20518;-57
2022/05/26 10:46:31;;;;;;;1.20;1.10;;;21.40;99.90;;;;;;5116954;28;20169;-58
2022/05/26 10:49:22;;;;;;;1.65;1.00;;;21.00;99.90;;;;;;5116706;27;20208;-59
2022/05/26 10:51:54;;;;;;;1.80;1.20;;;20.80;99.90;;;;;;5115539;28;20177;-58
2022/05/26 10:54:37;;;;;;;1.60;1.17;;;20.90;99.90;;;;;;5116604;28;20230;-59
2022/05/26 10:57:26;;;;;;;1.48;1.10;;;21.20;99.90;;;;;;5116842;28;20161;-58
2022/05/26 10:59:59;;;;;;;2.63;1.10;;;21.30;99.90;;;;;;5116639;28;20181;-58
2022/05/26 11:02:49;;;;;;;2.38;1.10;;;21.60;99.90;;;;;;5116531;28;20175;-58
2022/05/26 11:05:42;;;;;;;1.00;1.00;;;21.80;99.90;;;;;;5115150;28;20173;-59
2022/05/26 11:08:13;;;;;;;2.58;0.90;;;22.00;99.90;;;;;;5116417;28;20573;-59
2022/05/26 11:10:54;;;;;;;3.15;1.10;;;22.10;99.90;;;;;;5116324;28;20212;-58
2022/05/26 11:13:32;;;;;;;1.45;0.93;;;21.90;99.90;;;;;;5116168;28;20173;-59
2022/05/26 11:19:24;;;;;;;1.75;0.95;;;21.30;99.90;;;;;;5116368;28;20192;-58
2022/05/26 11:21:51;;;;;;;2.38;0.80;;;21.30;99.90;;;;;;5115996;28;20177;-58
2022/05/26 11:24:17;;;;;;;2.35;1.10;;;21.50;99.90;;;;;;5115931;28;20178;-58
2022/05/26 11:27:15;;;;;;;0.73;0.70;;;21.60;99.90;;;;;;5116291;28;20194;-59
2022/05/26 11:29:50;;;;;;;1.10;0.65;;;21.70;99.90;;;;;;5103671;28;20216;-58
2022/05/26 11:38:08;;;;;;;1.20;0.80;;;21.30;99.90;;;;;;5115947;28;20284;-58
2022/05/26 11:40:44;;;;;;;2.17;0.90;;;21.40;99.90;;;;;;5116118;28;20223;-58
2022/05/26 11:43:11;;;;;;;1.88;1.15;;;21.70;99.90;;;;;;5115894;28;20630;-58
2022/05/26 11:45:49;;;;;;;0.60;0.60;;;21.60;99.90;;;;;;5114332;28;20230;-58
2022/05/26 11:48:33;;;;;;;1.33;1.13;;;21.70;99.90;;;;;;5114305;28;20165;-58
2022/05/26 11:51:02;;;;;;;1.02;0.80;;;21.60;99.90;;;;;;5115332;28;20642;-58
2022/05/26 11:53:28;;;;;;;1.35;0.80;;;21.60;99.90;;;;;;5115856;28;20169;-58
2022/05/26 11:56:24;;;;;;;3.70;1.38;;;21.80;99.90;;;;;;5115490;28;20165;-58
2022/05/26 11:59:22;;;;;;;1.20;0.70;;;21.60;99.90;;;;;;5115154;28;20224;-58
2022/05/26 12:02:08;;;;;;;1.33;0.90;;;21.80;99.90;;;;;;5080972;28;20185;-58
2022/05/26 12:04:40;;;;;;;1.35;0.90;;;21.50;99.90;;;;;;5115214;28;20200;-58
2022/05/26 12:07:14;;;;;;;1.25;0.57;;;21.30;99.90;;;;;;5115029;28;20270;-58
2022/05/26 12:09:50;;;;;;;0.82;0.60;;;21.50;99.90;;;;;;5115198;28;20665;-58
2022/05/26 12:12:16;;;;;;;1.50;0.70;;;21.50;99.90;;;;;;5115189;28;20177;-57
2022/05/26 12:14:48;;;;;;;1.10;0.70;;;21.60;99.90;;;;;;5115048;28;20180;-58
2022/05/26 12:17:32;;;;;;;0.57;0.57;;;22.10;99.90;;;;;;5114570;28;20182;-58
2022/05/26 12:20:10;;;;;;;1.65;0.90;;;22.10;99.90;;;;;;5114842;28;20177;-58
2022/05/26 12:22:39;;;;;;;1.15;0.60;;;21.90;99.90;;;;;;5115034;28;20177;-58
2022/05/26 12:25:16;;;;;;;2.80;0.73;;;21.60;99.90;;;;;;5114851;28;20210;-58
2022/05/26 12:28:15;;;;;;;0.70;0.70;;;21.60;99.90;;;;;;5114800;28;20165;-58
2022/05/26 12:30:44;;;;;;;1.00;0.65;;;21.40;99.90;;;;;;5114919;28;20507;-58
2022/05/26 12:33:18;;;;;;;1.05;0.60;;;21.40;99.90;;;;;;5114738;28;20170;-58
2022/05/26 12:36:15;;;;;;;1.05;0.60;;;21.60;99.90;;;;;;5114867;28;20225;-58
2022/05/26 12:39:18;;;;;;;1.63;0.57;;;21.70;99.90;;;;;;5114391;28;20292;-58
2022/05/26 12:41:58;;;;;;;0.50;0.50;;;21.80;99.90;;;;;;5114618;28;20226;-58
2022/05/26 12:44:49;;;;;;;1.70;0.80;;;21.60;99.90;;;;;;5114568;28;20625;-58
2022/05/26 12:47:32;;;;;;;1.30;0.70;;;21.80;99.90;;;;;;5114210;28;20652;-58
2022/05/26 12:50:22;;;;;;;0.90;0.50;;;21.70;99.90;;;;;;5114398;28;20208;-58
2022/05/26 12:52:57;;;;;;;1.52;0.60;;;21.70;99.90;;;;;;5114345;28;20179;-57
2022/05/26 12:55:41;;;;;;;0.68;0.63;;;21.50;99.90;;;;;;5114136;28;20517;-58
2022/05/26 12:58:19;;;;;;;1.15;0.50;;;21.50;99.90;;;;;;5114476;28;20170;-59
2022/05/26 13:00:49;;;;;;;0.77;0.73;;;21.40;99.90;;;;;;5114357;28;20169;-59
2022/05/26 13:03:31;;;;;;;0.95;0.77;;;21.20;99.90;;;;;;5114158;28;20169;-59
2022/05/26 13:06:19;;;;;;;1.08;0.70;;;21.20;99.90;;;;;;5114125;28;20191;-59
2022/05/26 13:08:56;;;;;;;0.70;0.68;;;21.30;99.90;;;;;;5105604;28;20227;-59
2022/05/26 13:11:26;;;;;;;0.88;0.68;;;21.40;99.90;;;;;;5114054;28;20173;-59
2022/05/26 13:14:08;;;;;;;1.13;0.50;;;21.50;99.90;;;;;;5113997;28;20169;-59
2022/05/26 13:16:37;;;;;;;0.52;0.50;;;21.80;99.90;;;;;;5114152;28;20165;-59
2022/05/26 13:19:11;;;;;;;1.17;0.85;;;21.90;99.90;;;;;;5113940;28;20229;-59
2022/05/26 13:21:37;;;;;;;0.73;0.60;;;22.20;99.90;;;;;;5114033;28;20240;-59
2022/05/26 13:24:03;;;;;;;0.93;0.73;;;22.20;99.90;;;;;;5112673;28;20169;-59
2022/05/26 13:26:30;;;;;;;1.58;0.60;;;21.80;99.90;;;;;;5113848;28;20256;-59
2022/05/26 13:29:00;;;;;;;1.55;0.57;;;21.60;99.90;;;;;;5112012;28;20208;-59
2022/05/26 13:34:14;;;;;;;0.50;0.50;;;21.40;99.90;;;;;;5113954;28;20269;-59
2022/05/26 13:36:45;;;;;;;2.00;0.65;;;21.40;99.90;;;;;;5113947;28;20188;-59
2022/05/26 13:39:26;;;;;;;0.50;0.50;;;21.30;99.90;;;;;;5113623;28;20257;-59
2022/05/26 13:41:53;;;;;;;0.55;0.50;;;21.40;99.90;;;;;;5113767;28;20173;-59
2022/05/26 13:44:43;;;;;;;1.17;0.70;;;21.20;99.90;;;;;;5113578;28;20173;-60
2022/05/26 13:47:12;;;;;;;1.00;0.70;;;21.30;99.90;;;;;;5113652;28;20170;-60
2022/05/26 13:49:41;;;;;;;0.50;0.47;;;21.10;99.90;;;;;;5113401;28;20506;-59
2022/05/26 13:52:14;;;;;;;0.55;0.55;;;20.90;99.90;;;;;;5113559;28;20205;-60
2022/05/26 13:54:56;;;;;;;1.38;0.70;;;21.00;99.90;;;;;;5113609;28;20173;-59